Time;durP1;ratioP1;P1;durP2;ratioP2;P2;SDS_P1;SDS_P2;PMS_P1;PMS_P2;Temp;Humidity;BMP_temperature;BMP_pressure;BME280_temperature;BME280_humidity;BME280_pressure;Samples;Min_cycle;Max_cycle;Signal;HPM_P1;HPM_P2
2022/08/07 00:00:20;;;;;;;;;;;;;;;27.29;63.10;100844.16;5010025;28;20024;-81
2022/08/07 00:02:45;;;;;;;;;;;;;;;27.31;63.20;100844.13;5011217;28;19992;-80
2022/08/07 00:05:11;;;;;;;;;;;;;;;27.31;62.87;100847.69;5009870;28;20461;-81
2022/08/07 00:07:36;;;;;;;;;;;;;;;27.32;62.97;100851.25;5005348;28;19918;-81
2022/08/07 00:10:02;;;;;;;;;;;;;;;27.29;62.88;100843.28;5003204;28;19976;-81
2022/08/07 00:12:28;;;;;;;;;;;;;;;27.28;63.29;100841.47;5004762;28;19925;-81
2022/08/07 00:14:53;;;;;;;;;;;;;;;27.29;63.10;100848.63;5011544;28;19917;-80
2022/08/07 00:17:19;;;;;;;;;;;;;;;27.29;63.16;100841.47;5010654;28;20011;-80
2022/08/07 00:19:45;;;;;;;;;;;;;;;27.28;62.95;100849.53;5019284;28;19917;-81
2022/08/07 00:22:10;;;;;;;;;;;;;;;27.30;63.00;100855.75;5014240;28;20004;-81
2022/08/07 00:24:36;;;;;;;;;;;;;;;27.28;62.87;100850.41;5012583;28;19996;-81
2022/08/07 00:27:02;;;;;;;;;;;;;;;27.29;62.96;100848.63;5016668;28;19917;-81
2022/08/07 00:29:28;;;;;;;;;;;;;;;27.28;62.96;100845.03;5009403;28;19918;-81
2022/08/07 00:31:55;;;;;;;;;;;;;;;27.28;63.13;100846.84;4994157;28;20374;-81
2022/08/07 00:34:21;;;;;;;;;;;;;;;27.17;62.78;100828.19;5017977;28;19924;-81
2022/08/07 00:36:46;;;;;;;;;;;;;;;27.30;63.13;100853.94;5010317;28;19925;-81
2022/08/07 00:39:12;;;;;;;;;;;;;;;27.28;63.23;100853.09;5009935;28;19991;-81
2022/08/07 00:41:38;;;;;;;;;;;;;;;27.29;63.22;100849.50;5010258;28;19917;-81
2022/08/07 00:44:03;;;;;;;;;;;;;;;27.28;63.01;100847.72;5020682;28;19993;-81
2022/08/07 00:46:29;;;;;;;;;;;;;;;27.28;62.87;100849.53;5015839;28;20032;-81
2022/08/07 00:48:55;;;;;;;;;;;;;;;27.29;63.12;100854.00;5029167;28;19917;-81
2022/08/07 00:51:20;;;;;;;;;;;;;;;27.29;62.82;100851.31;5030958;28;20375;-81
2022/08/07 00:53:46;;;;;;;;;;;;;;;27.28;63.04;100849.53;5027412;28;21200;-82
2022/08/07 00:56:14;;;;;;;;;;;;;;;27.28;62.68;100852.22;5024401;28;19924;-81
2022/08/07 00:58:43;;;;;;;;;;;;;;;27.28;62.79;100850.41;5012570;28;20422;-81
2022/08/07 01:01:08;;;;;;;;;;;;;;;27.30;62.86;100853.06;5026162;28;19921;-81
2022/08/07 01:03:34;;;;;;;;;;;;;;;27.27;62.69;100851.31;5030815;28;19975;-81
2022/08/07 01:06:00;;;;;;;;;;;;;;;27.26;63.13;100852.22;5012170;28;19925;-80
2022/08/07 01:08:25;;;;;;;;;;;;;;;27.29;62.93;100851.31;5029642;28;20419;-81
2022/08/07 01:10:51;;;;;;;;;;;;;;;27.26;62.96;100845.97;5029798;28;19963;-82
2022/08/07 01:13:16;;;;;;;;;;;;;;;27.28;62.66;100846.84;5031325;28;19960;-81
2022/08/07 01:15:41;;;;;;;;;;;;;;;27.26;62.84;100854.91;5013337;28;20437;-80
2022/08/07 01:18:07;;;;;;;;;;;;;;;27.28;62.59;100847.72;5012998;28;20011;-80
2022/08/07 01:20:34;;;;;;;;;;;;;;;27.25;62.63;100842.41;5029084;28;20031;-81
2022/08/07 01:22:59;;;;;;;;;;;;;;;27.24;62.63;100843.31;5030833;28;20532;-81
2022/08/07 01:25:25;;;;;;;;;;;;;;;27.26;62.55;100849.53;5030130;28;20001;-80
2022/08/07 01:27:51;;;;;;;;;;;;;;;27.27;62.75;100839.72;5012819;28;20008;-80
2022/08/07 01:30:16;;;;;;;;;;;;;;;27.27;62.80;100837.03;5030497;28;19917;-82
2022/08/07 01:32:42;;;;;;;;;;;;;;;27.27;62.85;100843.28;5011383;28;20008;-81
2022/08/07 01:35:07;;;;;;;;;;;;;;;27.25;62.65;100842.41;5030388;28;19920;-82
2022/08/07 01:37:33;;;;;;;;;;;;;;;27.24;62.60;100837.94;5011808;28;19913;-81
2022/08/07 01:40:00;;;;;;;;;;;;;;;27.23;62.93;100846.03;5012063;28;20425;-82
2022/08/07 01:42:26;;;;;;;;;;;;;;;27.25;62.70;100839.72;5024444;28;20012;-82
2022/08/07 01:44:52;;;;;;;;;;;;;;;27.26;62.80;100845.97;5011508;28;20048;-83
2022/08/07 01:47:17;;;;;;;;;;;;;;;27.24;62.97;100837.06;5011778;28;19956;-82
2022/08/07 01:49:43;;;;;;;;;;;;;;;27.26;62.67;100848.66;4996112;28;20427;-81
2022/08/07 01:52:08;;;;;;;;;;;;;;;27.30;62.33;100840.53;5012295;28;19924;-80
2022/08/07 01:54:35;;;;;;;;;;;;;;;27.29;62.41;100835.22;5011729;28;19925;-81
2022/08/07 01:57:09;;;;;;;;;;;;;;;27.24;62.31;100840.63;5012039;28;20438;-80
2022/08/07 01:59:40;;;;;;;;;;;;;;;27.28;62.42;100838.78;5010788;28;20004;-82
2022/08/07 02:02:09;;;;;;;;;;;;;;;27.25;62.39;100838.84;5027051;28;20213;-80
2022/08/07 02:04:38;;;;;;;;;;;;;;;27.25;62.33;100838.84;5012590;28;19917;-81
2022/08/07 02:07:03;;;;;;;;;;;;;;;27.23;62.52;100846.03;4994024;28;20383;-81
2022/08/07 02:09:29;;;;;;;;;;;;;;;27.22;62.35;100837.09;5029242;28;20012;-81
2022/08/07 02:11:55;;;;;;;;;;;;;;;27.25;62.28;100841.53;5028483;28;20024;-81
2022/08/07 02:14:20;;;;;;;;;;;;;;;27.27;61.98;100845.09;5012426;28;19917;-81
2022/08/07 02:16:47;;;;;;;;;;;;;;;27.23;62.35;100838.00;5029327;28;19927;-80
2022/08/07 02:19:12;;;;;;;;;;;;;;;27.26;61.97;100843.28;5012722;28;19921;-80
2022/08/07 02:21:38;;;;;;;;;;;;;;;27.23;62.15;100844.22;5008104;28;20434;-80
2022/08/07 02:24:04;;;;;;;;;;;;;;;27.21;62.29;100837.97;5011921;28;20402;-80
2022/08/07 02:26:29;;;;;;;;;;;;;;;27.21;62.26;100837.97;5013778;28;19923;-80
2022/08/07 02:28:55;;;;;;;;;;;;;;;27.20;62.43;100834.41;5033632;28;20322;-80
2022/08/07 02:31:20;;;;;;;;;;;;;;;27.23;61.95;100835.31;5016050;28;19917;-80
2022/08/07 02:33:45;;;;;;;;;;;;;;;27.24;61.98;100834.38;5034246;28;19917;-80
2022/08/07 02:36:11;;;;;;;;;;;;;;;27.21;62.06;100837.97;5014224;28;19917;-81
2022/08/07 02:38:37;;;;;;;;;;;;;;;27.20;61.95;100838.88;5014722;28;19940;-81
2022/08/07 02:41:02;;;;;;;;;;;;;;;27.20;62.03;100841.56;5014715;28;19913;-81
2022/08/07 02:43:28;;;;;;;;;;;;;;;27.20;61.83;100846.94;5033779;28;20379;-80
2022/08/07 02:45:54;;;;;;;;;;;;;;;27.21;61.92;100838.84;5033347;28;19960;-80
2022/08/07 02:48:20;;;;;;;;;;;;;;;27.20;61.82;100841.56;5014395;28;19971;-81
2022/08/07 02:50:46;;;;;;;;;;;;;;;27.09;62.31;100838.13;5015742;28;19921;-82
2022/08/07 02:53:13;;;;;;;;;;;;;;;27.09;62.15;100848.84;5015298;28;20011;-80
2022/08/07 02:55:42;;;;;;;;;;;;;;;27.05;61.54;100839.06;4999239;28;20000;-80
2022/08/07 02:58:09;;;;;;;;;;;;;;;27.03;62.10;100841.78;5033063;28;20305;-81
2022/08/07 03:00:35;;;;;;;;;;;;;;;27.05;61.98;100839.97;5014533;28;19964;-80
2022/08/07 03:03:01;;;;;;;;;;;;;;;27.09;62.04;100841.69;5032917;28;19967;-81
2022/08/07 03:05:27;;;;;;;;;;;;;;;27.15;61.49;100846.09;5031719;28;20012;-81
2022/08/07 03:07:52;;;;;;;;;;;;;;;27.16;61.73;100847.88;4998628;28;20376;-82
2022/08/07 03:10:18;;;;;;;;;;;;;;;27.16;61.90;100845.19;5005662;28;19917;-80
2022/08/07 03:12:45;;;;;;;;;;;;;;;27.16;61.74;100848.75;5032849;28;19964;-80
2022/08/07 03:15:10;;;;;;;;;;;;;;;27.15;61.84;100849.66;5013862;28;19974;-80
2022/08/07 03:17:36;;;;;;;;;;;;;;;27.02;61.95;100850.72;5011405;28;19925;-81
2022/08/07 03:20:01;;;;;;;;;;;;;;;27.09;62.17;100847.03;5014693;28;19924;-81
2022/08/07 03:22:27;;;;;;;;;;;;;;;27.12;61.95;100848.81;5027129;28;20303;-82
2022/08/07 03:24:52;;;;;;;;;;;;;;;26.89;62.12;100843.75;5015781;28;19913;-81
2022/08/07 03:27:18;;;;;;;;;;;;;;;26.97;61.79;100848.09;5033329;28;19952;-81
2022/08/07 03:29:48;;;;;;;;;;;;;;;26.95;61.97;100849.03;5015134;28;19924;-80
2022/08/07 03:32:14;;;;;;;;;;;;;;;26.93;61.99;100843.69;5014204;28;19917;-81
2022/08/07 03:34:41;;;;;;;;;;;;;;;26.99;62.04;100857.00;5014759;28;19925;-81
2022/08/07 03:37:06;;;;;;;;;;;;;;;27.08;62.19;100855.13;4996181;28;19940;-81
2022/08/07 03:39:32;;;;;;;;;;;;;;;27.11;61.70;100861.31;5015295;28;20391;-81
2022/08/07 03:41:57;;;;;;;;;;;;;;;27.12;61.92;100851.50;5014288;28;20503;-81
2022/08/07 03:44:23;;;;;;;;;;;;;;;27.11;61.73;100855.06;5014462;28;19917;-81
2022/08/07 03:46:48;;;;;;;;;;;;;;;27.11;61.73;100864.00;5010775;28;19921;-81
2022/08/07 03:49:14;;;;;;;;;;;;;;;26.97;62.19;100860.63;5008594;28;19940;-80
2022/08/07 03:51:39;;;;;;;;;;;;;;;27.05;62.19;100864.09;5010118;28;19925;-81
2022/08/07 03:54:05;;;;;;;;;;;;;;;27.07;61.90;100861.38;5012939;28;19917;-81
2022/08/07 03:56:30;;;;;;;;;;;;;;;27.01;62.02;100857.88;5009355;28;19921;-82
2022/08/07 03:58:56;;;;;;;;;;;;;;;27.06;62.21;100860.50;5010975;28;20022;-81
2022/08/07 04:01:21;;;;;;;;;;;;;;;26.98;62.27;100852.53;5010296;28;19925;-81
2022/08/07 04:03:47;;;;;;;;;;;;;;;27.03;62.19;100855.19;5012042;28;19929;-82
2022/08/07 04:06:13;;;;;;;;;;;;;;;27.04;62.15;100861.44;5010702;28;19914;-81
2022/08/07 04:08:39;;;;;;;;;;;;;;;27.01;62.30;100857.88;5005323;28;19940;-82
2022/08/07 04:11:05;;;;;;;;;;;;;;;26.84;62.52;100858.97;4999996;28;19948;-81
2022/08/07 04:13:30;;;;;;;;;;;;;;;26.90;62.75;100857.13;5012400;28;19917;-81
2022/08/07 04:15:56;;;;;;;;;;;;;;;26.88;62.50;100860.72;5010290;28;19918;-81
2022/08/07 04:18:21;;;;;;;;;;;;;;;26.92;62.34;100852.63;5011341;28;19925;-80
2022/08/07 04:20:46;;;;;;;;;;;;;;;26.86;62.22;100858.09;5009335;28;19925;-80
2022/08/07 04:23:12;;;;;;;;;;;;;;;26.76;63.23;100862.66;5011701;28;19924;-80
2022/08/07 04:25:37;;;;;;;;;;;;;;;26.79;62.54;100859.91;4999072;28;19917;-80
2022/08/07 04:28:05;;;;;;;;;;;;;;;26.74;62.96;100863.56;4999077;28;19940;-82
2022/08/07 04:30:31;;;;;;;;;;;;;;;26.72;62.65;100860.03;5006707;28;19991;-81
2022/08/07 04:32:56;;;;;;;;;;;;;;;26.72;63.27;100855.53;5010473;28;20338;-81
2022/08/07 04:35:21;;;;;;;;;;;;;;;26.80;62.65;100858.16;5003834;28;20017;-82
2022/08/07 04:37:47;;;;;;;;;;;;;;;26.80;62.14;100853.66;5004530;28;19927;-81
2022/08/07 04:40:12;;;;;;;;;;;;;;;26.68;62.72;100869.00;5005668;28;19928;-80
2022/08/07 04:42:38;;;;;;;;;;;;;;;26.62;63.12;100864.59;5011134;28;19925;-80
2022/08/07 04:45:05;;;;;;;;;;;;;;;26.60;63.27;100863.72;5000453;28;19929;-78
2022/08/07 04:47:36;;;;;;;;;;;;;;;26.69;62.85;100860.03;4998919;28;19929;-80
2022/08/07 04:50:06;;;;;;;;;;;;;;;26.68;63.29;100869.00;4994057;28;19913;-80
2022/08/07 04:52:44;;;;;;;;;;;;;;;26.75;63.01;100870.69;5008883;28;19918;-80
2022/08/07 04:55:36;;;;;;;;;;;;;;;26.71;62.57;100882.34;4998756;28;19917;-79
2022/08/07 04:58:10;;;;;;;;;;;;;;;26.63;63.28;100874.41;4984798;28;19917;-81
2022/08/07 05:00:39;;;;;;;;;;;;;;;26.70;63.22;100885.94;5011484;28;19995;-82
2022/08/07 05:03:07;;;;;;;;;;;;;;;26.76;63.34;100875.16;5003377;28;19925;-81
2022/08/07 05:05:40;;;;;;;;;;;;;;;26.84;63.06;100884.00;4994025;28;19921;-80
2022/08/07 05:08:07;;;;;;;;;;;;;;;26.86;62.43;100881.28;4992242;28;19996;-80
2022/08/07 05:10:34;;;;;;;;;;;;;;;26.89;62.77;100878.59;5000802;28;19921;-81
2022/08/07 05:13:08;;;;;;;;;;;;;;;26.90;62.70;100883.03;5009964;28;19918;-81
2022/08/07 05:15:35;;;;;;;;;;;;;;;26.90;62.88;100881.25;5008945;28;19925;-80
2022/08/07 05:18:02;;;;;;;;;;;;;;;26.92;62.39;100876.75;5007144;28;19921;-80
2022/08/07 05:20:37;;;;;;;;;;;;;;;27.01;61.88;100889.16;4993723;28;19929;-82
2022/08/07 05:23:22;;;;;;;;;;;;;;;26.93;62.78;100883.00;5008197;28;20418;-80
2022/08/07 05:25:48;;;;;;;;;;;;;;;27.00;62.22;100877.53;5001195;28;20375;-84
2022/08/07 05:28:14;;;;;;;;;;;;;;;26.95;62.85;100879.41;4994102;28;19913;-82
2022/08/07 05:30:39;;;;;;;;;;;;;;;27.00;62.52;100880.22;5008303;28;19924;-82
2022/08/07 05:33:05;;;;;;;;;;;;;;;26.96;62.52;100877.59;5009346;28;19917;-83
2022/08/07 05:35:31;;;;;;;;;;;;;;;26.98;62.41;100881.16;5011336;28;19921;-84
2022/08/07 05:37:56;;;;;;;;;;;;;;;26.92;62.54;100876.75;5009209;28;19960;-81
2022/08/07 05:40:22;;;;;;;;;;;;;;;27.02;62.52;100885.56;5007858;28;19965;-80
2022/08/07 05:42:47;;;;;;;;;;;;;;;27.02;62.87;100882.88;5008708;28;19936;-81
2022/08/07 05:45:13;;;;;;;;;;;;;;;27.02;62.62;100886.44;5007663;28;20573;-80
2022/08/07 05:47:38;;;;;;;;;;;;;;;27.06;62.60;100878.38;5003863;28;19922;-79
2022/08/07 05:50:05;;;;;;;;;;;;;;;27.01;63.02;100886.50;5009387;28;19944;-80
2022/08/07 05:52:31;;;;;;;;;;;;;;;27.01;63.06;100894.53;4971348;28;19960;-80
2022/08/07 05:54:56;;;;;;;;;;;;;;;27.00;62.94;100890.06;5012300;28;19917;-80
2022/08/07 05:57:23;;;;;;;;;;;;;;;27.00;62.66;100890.06;4994884;28;20380;-82
2022/08/07 05:59:50;;;;;;;;;;;;;;;26.99;62.69;100890.97;4987932;28;19921;-81
2022/08/07 06:02:25;;;;;;;;;;;;;;;27.01;62.36;100895.41;5012848;28;19924;-83
2022/08/07 06:04:54;;;;;;;;;;;;;;;26.99;62.78;100897.22;4974879;28;19929;-82
2022/08/07 06:07:25;;;;;;;;;;;;;;;26.99;62.52;100897.22;4993651;28;19914;-82
2022/08/07 06:09:51;;;;;;;;;;;;;;;26.99;62.70;100899.03;4980443;28;19972;-81
2022/08/07 06:12:16;;;;;;;;;;;;;;;26.99;62.67;100905.25;4997557;28;19913;-82
2022/08/07 06:14:42;;;;;;;;;;;;;;;26.98;62.47;100900.78;5014630;28;19921;-82
2022/08/07 06:17:08;;;;;;;;;;;;;;;26.95;62.57;100899.97;4996987;28;19920;-82
2022/08/07 06:19:34;;;;;;;;;;;;;;;26.95;62.42;100900.84;4998083;28;19918;-82
2022/08/07 06:21:59;;;;;;;;;;;;;;;27.00;62.51;100906.16;5015032;28;19920;-82
2022/08/07 06:24:25;;;;;;;;;;;;;;;26.95;62.76;100897.28;4998067;28;20311;-82
2022/08/07 06:26:50;;;;;;;;;;;;;;;26.97;62.82;100906.19;4979998;28;19932;-82
2022/08/07 06:29:16;;;;;;;;;;;;;;;26.93;62.71;100893.72;4997297;28;19913;-82
2022/08/07 06:31:41;;;;;;;;;;;;;;;26.95;62.63;100897.28;5014128;28;19913;-82
2022/08/07 06:34:07;;;;;;;;;;;;;;;26.93;62.68;100901.78;5014654;28;19917;-80
2022/08/07 06:36:35;;;;;;;;;;;;;;;26.96;62.66;100899.03;4999943;28;19918;-80
2022/08/07 06:39:01;;;;;;;;;;;;;;;26.97;62.67;100901.72;4992078;28;19922;-81
2022/08/07 06:41:53;;;;;;;;;;;;;;;26.99;62.60;100899.91;4979275;28;19918;-83
2022/08/07 06:44:20;;;;;;;;;;;;;;;26.94;62.76;100907.09;4998546;28;19921;-82
2022/08/07 06:46:47;;;;;;;;;;;;;;;26.94;62.57;100899.03;4995660;28;19971;-83
2022/08/07 06:49:13;;;;;;;;;;;;;;;26.95;62.61;100902.63;5034710;28;19922;-82
2022/08/07 06:51:39;;;;;;;;;;;;;;;26.90;62.69;100900.03;4998925;28;19920;-83
2022/08/07 06:54:05;;;;;;;;;;;;;;;26.88;62.11;100904.50;5005280;28;20337;-81
2022/08/07 06:56:39;;;;;;;;;;;;;;;26.80;62.44;100903.69;4996785;28;20382;-81
2022/08/07 06:59:14;;;;;;;;;;;;;;;26.79;62.95;100907.28;5003139;28;19928;-81
2022/08/07 07:01:50;;;;;;;;;;;;;;;26.74;62.52;100906.44;5003366;28;20311;-83
2022/08/07 07:04:16;;;;;;;;;;;;;;;26.79;62.89;100910.81;5000748;28;19960;-81
2022/08/07 07:06:43;;;;;;;;;;;;;;;26.80;62.62;100906.38;5019441;28;20481;-81
2022/08/07 07:09:19;;;;;;;;;;;;;;;26.78;62.42;100911.75;5003732;28;19920;-82
2022/08/07 07:11:52;;;;;;;;;;;;;;;26.75;62.93;100910.88;5016977;28;19923;-82
2022/08/07 07:14:18;;;;;;;;;;;;;;;26.75;62.95;100908.19;4983541;28;19913;-82
2022/08/07 07:16:43;;;;;;;;;;;;;;;26.77;63.20;100917.13;5001465;28;19917;-80
2022/08/07 07:19:09;;;;;;;;;;;;;;;26.73;62.99;100913.59;5001259;28;20302;-80
2022/08/07 07:21:35;;;;;;;;;;;;;;;26.80;62.55;100917.09;4998936;28;19917;-80
2022/08/07 07:24:00;;;;;;;;;;;;;;;26.83;62.79;100919.72;4998271;28;20003;-79
2022/08/07 07:26:25;;;;;;;;;;;;;;;26.74;63.03;100925.19;5014914;28;19924;-81
2022/08/07 07:28:51;;;;;;;;;;;;;;;26.81;62.86;100926.91;5014492;28;19917;-81
2022/08/07 07:31:24;;;;;;;;;;;;;;;26.76;62.79;100926.94;5018243;28;20437;-82
2022/08/07 07:33:50;;;;;;;;;;;;;;;26.76;63.00;100924.28;5004679;28;19920;-81
2022/08/07 07:36:16;;;;;;;;;;;;;;;26.73;63.38;100918.97;5014178;28;20375;-81
2022/08/07 07:38:41;;;;;;;;;;;;;;;26.76;63.14;100921.59;4997776;28;20055;-82
2022/08/07 07:41:08;;;;;;;;;;;;;;;26.79;62.92;100924.22;4996002;28;19918;-82
2022/08/07 07:43:33;;;;;;;;;;;;;;;26.92;62.45;100919.63;4996043;28;19914;-80
2022/08/07 07:45:58;;;;;;;;;;;;;;;26.94;62.58;100925.84;5000447;28;20310;-81
2022/08/07 07:48:27;;;;;;;;;;;;;;;26.90;62.90;100928.59;4996244;28;19914;-83
2022/08/07 07:50:53;;;;;;;;;;;;;;;26.90;63.35;100923.22;5014069;28;19952;-83
2022/08/07 07:53:18;;;;;;;;;;;;;;;26.89;63.61;100927.72;4995822;28;20006;-82
2022/08/07 07:55:44;;;;;;;;;;;;;;;26.97;62.81;100931.19;4994690;28;19917;-82
2022/08/07 07:58:10;;;;;;;;;;;;;;;26.87;63.69;100921.47;5017453;28;19920;-82
2022/08/07 08:00:35;;;;;;;;;;;;;;;26.93;64.44;100915.16;5016407;28;19952;-81
2022/08/07 08:03:05;;;;;;;;;;;;;;;26.90;64.30;100924.13;5010483;28;19964;-81
2022/08/07 08:05:30;;;;;;;;;;;;;;;26.94;64.20;100923.16;5008393;28;20017;-80
2022/08/07 08:07:56;;;;;;;;;;;;;;;26.93;63.54;100924.09;5011577;28;20003;-82
2022/08/07 08:10:21;;;;;;;;;;;;;;;26.91;64.16;100927.69;4998019;28;20302;-82
2022/08/07 08:12:47;;;;;;;;;;;;;;;26.91;64.73;100928.56;5002937;28;19947;-81
2022/08/07 08:15:12;;;;;;;;;;;;;;;26.80;64.98;100931.38;5008354;28;19987;-82
2022/08/07 08:17:38;;;;;;;;;;;;;;;26.80;65.16;100931.38;4995088;28;19922;-82
2022/08/07 08:20:05;;;;;;;;;;;;;;;26.82;65.41;100923.31;4996772;28;19979;-82
2022/08/07 08:27:59;;;;;;;;;;;;;;;26.81;65.63;100937.63;5010816;28;19936;-81
2022/08/07 08:30:28;;;;;;;;;;;;;;;26.85;65.52;100934.00;5008049;28;19917;-82
2022/08/07 08:32:54;;;;;;;;;;;;;;;26.96;65.33;100925.84;4995907;28;20351;-80
2022/08/07 08:35:22;;;;;;;;;;;;;;;26.88;65.71;100931.31;5001571;28;19920;-81
2022/08/07 08:37:47;;;;;;;;;;;;;;;26.93;65.75;100939.28;5012474;28;19917;-81
2022/08/07 08:40:14;;;;;;;;;;;;;;;26.88;66.08;100939.34;5014159;28;19925;-82
2022/08/07 08:42:51;;;;;;;;;;;;;;;26.86;66.30;100932.19;5028095;28;19971;-81
2022/08/07 08:45:18;;;;;;;;;;;;;;;26.90;66.58;100937.53;5013995;28;20291;-82
2022/08/07 08:48:02;;;;;;;;;;;;;;;27.02;65.21;100931.13;4991680;28;19980;-80
2022/08/07 08:50:39;;;;;;;;;;;;;;;27.03;65.70;100932.94;5005865;28;19956;-81
2022/08/07 08:53:25;;;;;;;;;;;;;;;27.08;65.56;100927.50;4993055;28;19967;-81
2022/08/07 08:55:53;;;;;;;;;;;;;;;27.07;64.71;100929.28;5009167;28;20565;-82
2022/08/07 08:58:37;;;;;;;;;;;;;;;27.02;64.93;100928.47;4992831;28;19917;-81
2022/08/07 09:01:26;;;;;;;;;;;;;;;27.05;65.40;100927.53;5004651;28;20008;-83
2022/08/07 09:03:54;;;;;;;;;;;;;;;27.01;65.95;100929.38;5000391;28;20387;-82
2022/08/07 09:06:36;;;;;;;;;;;;;;;27.01;65.98;100935.63;5010105;28;20032;-83
2022/08/07 09:09:23;;;;;;;;;;;;;;;27.05;65.62;100925.75;5002212;28;20433;-83
2022/08/07 09:12:07;;;;;;;;;;;;;;;27.02;65.76;100933.81;5008948;28;19994;-83
2022/08/07 09:14:41;;;;;;;;;;;;;;;27.09;65.73;100923.91;5010323;28;20000;-83
2022/08/07 09:17:13;;;;;;;;;;;;;;;27.02;66.39;100917.72;5009834;28;19920;-83
2022/08/07 09:19:44;;;;;;;;;;;;;;;27.06;66.05;100922.16;5011996;28;19971;-83
2022/08/07 09:22:20;;;;;;;;;;;;;;;26.95;66.80;100927.66;5008198;28;20315;-81
2022/08/07 09:25:04;;;;;;;;;;;;;;;27.01;66.59;100916.84;5009490;28;19968;-81
2022/08/07 09:27:38;;;;;;;;;;;;;;;27.12;65.69;100931.94;5001473;28;20310;-81
2022/08/07 09:30:07;;;;;;;;;;;;;;;27.10;66.03;100934.63;4994752;28;19959;-82
2022/08/07 09:32:46;;;;;;;;;;;;;;;27.05;66.08;100935.56;4982549;28;20287;-81
2022/08/07 09:35:30;;;;;;;;;;;;;;;27.06;65.90;100926.63;5007999;28;19917;-81
2022/08/07 09:38:06;;;;;;;;;;;;;;;27.05;65.54;100933.81;5009982;28;20003;-81
2022/08/07 09:40:34;;;;;;;;;;;;;;;27.03;65.83;100935.59;5012670;28;19980;-82
2022/08/07 09:43:18;;;;;;;;;;;;;;;27.05;65.67;100939.16;5010459;28;19944;-81
2022/08/07 09:46:02;;;;;;;;;;;;;;;27.11;66.38;100932.81;5013934;28;19924;-80
2022/08/07 09:48:38;;;;;;;;;;;;;;;27.12;65.65;100932.81;5030830;28;20391;-81
2022/08/07 09:54:07;;;;;;;;;;;;;;;27.13;65.85;100931.88;4970946;28;19946;-84
2022/08/07 09:56:43;;;;;;;;;;;;;;;27.13;65.67;100925.66;4955544;28;19940;-84
2022/08/07 09:59:21;;;;;;;;;;;;;;;27.10;65.08;100926.56;4960409;28;19969;-85
2022/08/07 10:01:56;;;;;;;;;;;;;;;27.13;64.95;100929.22;4972765;28;20740;-86
2022/08/07 10:04:25;;;;;;;;;;;;;;;27.17;64.59;100927.38;4957528;28;19960;-86
2022/08/07 10:06:58;;;;;;;;;;;;;;;27.25;64.36;100924.66;4972484;28;19918;-83
2022/08/07 10:09:29;;;;;;;;;;;;;;;27.21;64.18;100923.75;4952204;28;19918;-83
2022/08/07 10:12:07;;;;;;;;;;;;;;;27.15;63.31;100927.41;4970225;28;19922;-85
2022/08/07 10:14:33;;;;;;;;;;;;;;;27.19;62.61;100923.78;4966454;28;19918;-84
2022/08/07 10:17:14;;;;;;;;;;;;;;;27.30;62.92;100933.53;4970290;28;19974;-85
2022/08/07 10:19:55;;;;;;;;;;;;;;;27.24;62.83;100928.22;4966887;28;20292;-86
2022/08/07 10:22:20;;;;;;;;;;;;;;;27.27;62.75;100923.72;4987751;28;19913;-84
2022/08/07 10:25:01;;;;;;;;;;;;;;;27.27;62.75;100931.78;5029602;28;19931;-84
2022/08/07 10:27:38;;;;;;;;;;;;;;;27.24;62.45;100925.53;5031845;28;19975;-84
2022/08/07 10:30:05;;;;;;;;;;;;;;;27.21;62.44;100930.00;5021032;28;19935;-86
2022/08/07 10:32:34;;;;;;;;;;;;;;;27.23;61.32;100923.78;5033217;28;19970;-85
2022/08/07 10:35:20;;;;;;;;;;;;;;;27.18;61.06;100916.66;4998625;28;19933;-85
2022/08/07 10:38:04;;;;;;;;;;;;;;;27.20;60.44;100917.53;5011513;28;20428;-84
2022/08/07 10:40:34;;;;;;;;;;;;;;;27.26;60.47;100926.41;5030651;28;20353;-84
2022/08/07 10:43:02;;;;;;;;;;;;;;;27.24;60.29;100920.19;5033789;28;19917;-86
2022/08/07 10:45:27;;;;;;;;;;;;;;;27.26;60.70;100926.41;5016072;28;19913;-84
2022/08/07 10:47:57;;;;;;;;;;;;;;;27.24;59.99;100923.75;5033350;28;20444;-84
2022/08/07 10:50:23;;;;;;;;;;;;;;;27.27;60.65;100928.22;5033664;28;19952;-84
2022/08/07 10:52:54;;;;;;;;;;;;;;;27.26;60.46;100927.28;5019203;28;20334;-84
2022/08/07 10:55:20;;;;;;;;;;;;;;;27.29;61.17;100921.91;5000135;28;19967;-83
2022/08/07 10:58:05;;;;;;;;;;;;;;;27.27;60.79;100922.84;5003865;28;19968;-85
2022/08/07 11:00:33;;;;;;;;;;;;;;;27.30;60.60;100925.47;5026314;28;19925;-84
2022/08/07 11:03:02;;;;;;;;;;;;;;;27.30;61.20;100921.00;5014680;28;19913;-84
2022/08/07 11:05:51;;;;;;;;;;;;;;;27.34;60.80;100928.09;5016125;28;19957;-84
2022/08/07 11:08:37;;;;;;;;;;;;;;;27.35;60.61;100929.00;5017550;28;19913;-85
2022/08/07 11:11:09;;;;;;;;;;;;;;;27.31;60.78;100924.59;5024987;28;19913;-85
2022/08/07 11:13:55;;;;;;;;;;;;;;;27.33;60.60;100928.13;5029087;28;20020;-87
2022/08/07 11:16:23;;;;;;;;;;;;;;;27.40;61.06;100924.44;5010154;28;19942;-87
2022/08/07 11:18:51;;;;;;;;;;;;;;;27.53;60.92;100922.50;5007409;28;19956;-87
2022/08/07 11:21:25;;;;;;;;;;;;;;;27.42;60.60;100918.16;5011012;28;19928;-88
2022/08/07 11:23:52;;;;;;;;;;;;;;;27.42;60.88;100926.19;5018856;28;19919;-87
2022/08/07 11:26:30;;;;;;;;;;;;;;;27.45;60.56;100930.63;5014810;28;19921;-86
2022/08/07 11:29:02;;;;;;;;;;;;;;;27.39;60.11;100928.94;5032624;28;19917;-86
2022/08/07 11:31:33;;;;;;;;;;;;;;;27.35;60.36;100916.47;5013812;28;20011;-85
2022/08/07 11:34:03;;;;;;;;;;;;;;;27.40;60.26;100929.81;5031608;28;19923;-86
2022/08/07 11:36:28;;;;;;;;;;;;;;;27.41;60.10;100929.81;4997877;28;19921;-86
2022/08/07 11:39:08;;;;;;;;;;;;;;;27.48;59.87;100927.94;5014410;28;19917;-86
2022/08/07 11:41:38;;;;;;;;;;;;;;;27.45;59.71;100916.34;5014176;28;19965;-89
2022/08/07 11:44:12;;;;;;;;;;;;;;;27.45;59.38;100927.94;5031318;28;19925;-88
2022/08/07 11:46:43;;;;;;;;;;;;;;;27.48;59.67;100933.28;5011782;28;19921;-88
2022/08/07 11:49:15;;;;;;;;;;;;;;;27.48;59.54;100924.38;4997106;28;19924;-87
2022/08/07 11:51:50;;;;;;;;;;;;;;;27.52;60.04;100924.28;5031447;28;19921;-88
2022/08/07 11:54:19;;;;;;;;;;;;;;;27.46;59.58;100932.44;5011320;28;19964;-87
2022/08/07 11:56:55;;;;;;;;;;;;;;;27.48;59.77;100925.25;5002618;28;20000;-88
2022/08/07 11:59:37;;;;;;;;;;;;;;;27.49;59.99;100923.44;5007071;28;19922;-88
2022/08/07 12:02:05;;;;;;;;;;;;;;;27.53;59.84;100923.38;5014465;28;20382;-88
2022/08/07 12:04:49;;;;;;;;;;;;;;;27.52;60.05;100926.97;5032667;28;20015;-89
2022/08/07 12:07:21;;;;;;;;;;;;;;;27.53;60.11;100925.19;5015064;28;19920;-88
2022/08/07 12:09:54;;;;;;;;;;;;;;;27.51;59.31;100927.88;5019733;28;19914;-89
2022/08/07 12:12:24;;;;;;;;;;;;;;;27.54;59.37;100927.84;5004837;28;19920;-89
2022/08/07 12:14:54;;;;;;;;;;;;;;;27.57;59.19;100925.09;5015074;28;19955;-87
2022/08/07 12:17:19;;;;;;;;;;;;;;;27.54;59.60;100924.28;5031943;28;20367;-87
2022/08/07 12:19:53;;;;;;;;;;;;;;;27.57;59.53;100924.22;5031866;28;19924;-87
2022/08/07 12:22:22;;;;;;;;;;;;;;;27.56;59.04;100917.97;5023474;28;20407;-87
2022/08/07 12:27:54;;;;;;;;;;;;;;;27.58;59.34;100918.84;5021698;28;19920;-86
2022/08/07 12:30:20;;;;;;;;;;;;;;;27.58;59.02;100921.53;4994796;28;19951;-88
2022/08/07 12:32:46;;;;;;;;;;;;;;;27.64;59.62;100916.97;5010600;28;19924;-88
2022/08/07 12:35:12;;;;;;;;;;;;;;;27.60;59.14;100919.72;5030335;28;19921;-87
2022/08/07 12:37:39;;;;;;;;;;;;;;;27.57;59.03;100917.06;5000738;28;19924;-86
2022/08/07 12:40:05;;;;;;;;;;;;;;;27.58;59.31;100909.88;4995515;28;19921;-87
2022/08/07 12:42:30;;;;;;;;;;;;;;;27.60;59.19;100908.06;5011672;28;20414;-86
2022/08/07 12:44:57;;;;;;;;;;;;;;;27.55;58.28;100923.38;5011730;28;19979;-86
2022/08/07 12:47:34;;;;;;;;;;;;;;;27.58;58.83;100917.94;5009009;28;19925;-86
2022/08/07 12:49:59;;;;;;;;;;;;;;;27.61;59.20;100910.75;4999318;28;19924;-86
2022/08/07 12:52:27;;;;;;;;;;;;;;;27.64;59.06;100914.28;5019446;28;19917;-86
2022/08/07 12:54:58;;;;;;;;;;;;;;;27.60;58.32;100910.75;5006142;28;19917;-86